createdAt,value
2019-04-28T00:02:24.709Z,7.26
2019-04-28T00:05:01.488Z,7.20
2019-04-28T00:07:37.475Z,7.20
2019-04-28T00:10:13.151Z,7.27
2019-04-28T00:12:48.209Z,7.21
2019-04-28T00:15:23.849Z,7.19
2019-04-28T00:17:58.795Z,7.29
2019-04-28T00:20:52.109Z,7.35
2019-04-28T00:23:38.737Z,7.49
2019-04-28T00:26:32.580Z,7.51
2019-04-28T00:29:07.782Z,7.51
2019-04-28T00:31:43.921Z,7.51
2019-04-28T00:34:19.018Z,7.49
2019-04-28T00:37:11.517Z,7.46
2019-04-28T00:39:46.513Z,7.50
2019-04-28T00:42:22.768Z,7.55
2019-04-28T00:44:58.796Z,7.52
2019-04-28T00:47:34.152Z,7.54
2019-04-28T00:50:11.655Z,7.41
2019-04-28T00:52:46.782Z,7.38
2019-04-28T00:55:21.975Z,7.48
2019-04-28T00:57:56.916Z,7.37
2019-04-28T01:00:34.938Z,7.26
2019-04-28T01:03:11.694Z,7.25
2019-04-28T01:05:46.870Z,7.14
2019-04-28T01:08:22.018Z,7.24
2019-04-28T01:10:57.066Z,7.12
2019-04-28T01:13:32.252Z,7.10
2019-04-28T01:16:23.060Z,7.14
2019-04-28T01:19:02.271Z,7.14
2019-04-28T01:21:54.504Z,7.14
2019-04-28T01:24:29.834Z,6.99
2019-04-28T01:27:06.984Z,6.99
2019-04-28T01:29:42.137Z,7.02
2019-04-28T01:32:35.494Z,6.99
2019-04-28T01:35:11.342Z,6.87
2019-04-28T01:37:46.441Z,6.77
2019-04-28T01:40:21.582Z,6.84
2019-04-28T01:42:56.484Z,6.81
2019-04-28T01:45:31.756Z,6.82
2019-04-28T01:48:06.784Z,6.79
2019-04-28T01:50:41.956Z,6.78
2019-04-28T01:53:16.914Z,6.75
2019-04-28T01:55:52.011Z,6.77
2019-04-28T01:58:26.908Z,6.74
2019-04-28T02:01:01.956Z,6.73
2019-04-28T02:03:36.966Z,6.75
2019-04-28T02:06:12.229Z,6.69
2019-04-28T02:08:47.080Z,6.72
2019-04-28T02:11:22.401Z,6.70
2019-04-28T02:13:57.468Z,6.79
2019-04-28T02:16:32.640Z,6.77
2019-04-28T02:19:07.553Z,6.76
2019-04-28T02:21:56.966Z,6.79
2019-04-28T02:24:34.156Z,6.69
2019-04-28T02:27:10.618Z,6.84
2019-04-28T02:29:45.792Z,6.84
2019-04-28T02:32:24.268Z,6.66
2019-04-28T02:35:00.832Z,6.72
2019-04-28T02:37:35.601Z,6.73
2019-04-28T02:40:10.987Z,6.72
2019-04-28T02:42:46.424Z,6.67
2019-04-28T02:45:22.585Z,6.64
2019-04-28T02:48:01.245Z,6.65
2019-04-28T02:50:43.086Z,6.62
2019-04-28T02:53:33.780Z,6.64
2019-04-28T02:56:11.219Z,6.71
2019-04-28T02:58:46.381Z,6.70
2019-04-28T03:01:26.101Z,6.69
2019-04-28T03:04:00.336Z,6.59
2019-04-28T03:06:35.134Z,6.63
2019-04-28T03:09:10.700Z,6.62
2019-04-28T03:11:45.991Z,6.77
2019-04-28T03:14:21.164Z,6.81
2019-04-28T03:16:56.157Z,6.67
2019-04-28T03:19:34.160Z,6.70
2019-04-28T03:22:07.906Z,6.61
2019-04-28T03:24:44.697Z,6.63
2019-04-28T03:27:50.909Z,6.63
2019-04-28T03:30:44.259Z,6.55
2019-04-28T03:33:25.298Z,6.54
2019-04-28T03:35:57.403Z,6.64
2019-04-28T03:38:32.677Z,6.61
2019-04-28T03:41:07.658Z,6.51
2019-04-28T03:43:42.851Z,6.53
2019-04-28T03:46:22.579Z,6.47
2019-04-28T03:48:57.530Z,6.49
2019-04-28T03:51:32.686Z,6.49
2019-04-28T03:54:07.657Z,6.53
2019-04-28T03:56:43.061Z,6.42
2019-04-28T03:59:18.027Z,6.38
2019-04-28T04:01:59.476Z,6.40
2019-04-28T04:04:32.023Z,6.45
2019-04-28T04:07:06.381Z,6.58
2019-04-28T04:10:03.352Z,6.53
2019-04-28T04:12:47.709Z,6.50
2019-04-28T04:15:48.679Z,6.68
2019-04-28T04:18:32.636Z,6.73
2019-04-28T04:21:11.086Z,6.77
2019-04-28T04:23:46.868Z,6.88
2019-04-28T04:26:22.668Z,6.89
2019-04-28T04:29:00.914Z,6.97
2019-04-28T04:31:36.754Z,6.95
2019-04-28T04:34:12.081Z,7.05
2019-04-28T04:36:47.045Z,7.11
2019-04-28T04:39:22.311Z,7.10
2019-04-28T04:41:57.277Z,7.14
2019-04-28T04:44:32.429Z,7.25
2019-04-28T04:47:07.377Z,7.34
2019-04-28T04:49:42.540Z,7.42
2019-04-28T04:52:20.145Z,7.42
2019-04-28T04:54:54.261Z,7.41
2019-04-28T04:57:32.225Z,7.41
2019-04-28T05:00:10.037Z,7.49
2019-04-28T05:02:52.884Z,7.49
2019-04-28T05:05:40.345Z,7.45
2019-04-28T05:08:15.736Z,7.55
2019-04-28T05:10:50.795Z,7.64
2019-04-28T05:13:25.768Z,7.68
2019-04-28T05:16:00.730Z,7.67
2019-04-28T05:18:35.868Z,7.75
2019-04-28T05:21:10.869Z,7.73
2019-04-28T05:24:10.827Z,7.67
2019-04-28T05:26:47.839Z,7.58
2019-04-28T05:29:21.769Z,7.81
2019-04-28T05:31:59.765Z,7.77
2019-04-28T05:34:32.463Z,7.98
2019-04-28T05:37:07.395Z,8.18
2019-04-28T05:39:42.465Z,8.29
2019-04-28T05:42:17.415Z,8.43
2019-04-28T05:44:52.593Z,8.41
2019-04-28T05:47:27.525Z,8.32
2019-04-28T05:50:17.169Z,8.52
2019-04-28T05:53:01.322Z,8.52
2019-04-28T05:55:56.339Z,8.49
2019-04-28T05:58:45.713Z,8.67
2019-04-28T06:01:33.517Z,8.65
2019-04-28T06:04:09.388Z,8.75
2019-04-28T06:06:49.444Z,8.79
2019-04-28T06:09:34.869Z,8.78
2019-04-28T06:12:12.111Z,8.87
2019-04-28T06:14:47.081Z,8.81
2019-04-28T06:17:22.296Z,8.94
2019-04-28T06:19:57.350Z,8.84
2019-04-28T06:22:32.442Z,8.97
2019-04-28T06:25:07.698Z,8.93
2019-04-28T06:27:42.865Z,8.97
2019-04-28T06:30:18.657Z,9.05
2019-04-28T06:33:06.779Z,9.10
2019-04-28T06:35:30.521Z,9.11
2019-04-28T06:38:05.463Z,9.20
2019-04-28T06:40:40.435Z,9.25
2019-04-28T06:43:15.376Z,9.24
2019-04-28T06:45:51.669Z,9.13
2019-04-28T06:48:26.617Z,9.16
2019-04-28T06:51:01.708Z,9.17
2019-04-28T06:53:36.719Z,9.27
2019-04-28T06:56:11.824Z,9.47
2019-04-28T06:58:58.344Z,9.59
2019-04-28T07:01:24.761Z,9.73
2019-04-28T07:03:59.740Z,9.65
2019-04-28T07:06:34.993Z,9.78
2019-04-28T07:09:10.044Z,9.75
2019-04-28T07:11:45.072Z,9.72
2019-04-28T07:14:20.034Z,9.75
2019-04-28T07:16:58.204Z,9.96
2019-04-28T07:19:33.671Z,9.97
2019-04-28T07:22:27.515Z,9.98
2019-04-28T07:25:02.650Z,10.15
2019-04-28T07:27:37.755Z,10.34
2019-04-28T07:30:14.494Z,10.35
2019-04-28T07:32:49.617Z,10.34
2019-04-28T07:35:24.557Z,10.38
2019-04-28T07:37:59.563Z,10.26
2019-04-28T07:40:35.059Z,10.26
2019-04-28T07:43:11.602Z,10.16
2019-04-28T07:45:46.613Z,9.99
2019-04-28T07:48:21.836Z,10.01
2019-04-28T07:50:56.809Z,9.77
2019-04-28T07:53:38.025Z,9.71
2019-04-28T07:56:14.116Z,9.99
2019-04-28T07:58:49.699Z,10.20
2019-04-28T08:01:24.713Z,10.10
2019-04-28T08:03:59.663Z,10.49
2019-04-28T08:06:34.866Z,10.17
2019-04-28T08:09:13.020Z,10.35
2019-04-28T08:11:48.021Z,10.26
2019-04-28T08:14:23.444Z,10.11
2019-04-28T08:16:58.467Z,9.93
2019-04-28T08:19:34.043Z,10.17
2019-04-28T08:22:09.028Z,10.32
2019-04-28T08:24:44.123Z,10.58
2019-04-28T08:27:19.125Z,10.76
2019-04-28T08:29:58.547Z,10.59
2019-04-28T08:32:54.611Z,10.76
2019-04-28T08:35:29.870Z,10.87
2019-04-28T08:38:04.862Z,10.97
2019-04-28T08:40:39.859Z,11.02
2019-04-28T08:43:49.404Z,10.78
2019-04-28T08:46:24.713Z,10.71
2019-04-28T08:49:00.724Z,10.99
2019-04-28T08:51:37.112Z,10.60
2019-04-28T08:54:12.550Z,10.76
2019-04-28T08:56:47.755Z,11.00
2019-04-28T08:59:23.147Z,10.99
2019-04-28T09:01:58.265Z,10.97
2019-04-28T09:04:33.999Z,10.93
2019-04-28T09:07:08.947Z,10.83
2019-04-28T09:09:44.033Z,11.03
2019-04-28T09:12:19.016Z,11.10
2019-04-28T09:14:54.078Z,10.99
2019-04-28T09:17:29.047Z,10.96
2019-04-28T09:20:28.065Z,11.00
2019-04-28T09:23:03.282Z,11.05
2019-04-28T09:25:38.259Z,11.24
2019-04-28T09:28:13.455Z,11.44
2019-04-28T09:30:48.505Z,11.48
2019-04-28T09:33:23.661Z,11.72
2019-04-28T09:35:58.695Z,11.85
2019-04-28T09:38:34.465Z,12.02
2019-04-28T09:41:09.411Z,12.20
2019-04-28T09:44:07.546Z,12.54
2019-04-28T09:46:44.167Z,12.63
2019-04-28T09:49:23.396Z,11.87
2019-04-28T09:51:58.377Z,11.86
2019-04-28T09:54:33.995Z,11.86
2019-04-28T09:57:08.977Z,12.27
2019-04-28T09:59:44.223Z,12.64
2019-04-28T10:02:19.247Z,12.57
2019-04-28T10:04:54.301Z,12.69
2019-04-28T10:07:29.297Z,13.02
2019-04-28T10:10:04.401Z,13.32
2019-04-28T10:12:40.481Z,13.67
2019-04-28T10:15:17.489Z,13.64
2019-04-28T10:17:52.660Z,13.53
2019-04-28T10:20:29.351Z,14.12
2019-04-28T10:23:05.885Z,14.00
2019-04-28T10:25:41.019Z,14.46
2019-04-28T10:28:16.206Z,14.26
2019-04-28T10:30:51.316Z,14.67
2019-04-28T10:33:26.318Z,14.17
2019-04-28T10:36:01.457Z,14.56
2019-04-28T10:38:38.033Z,14.37
2019-04-28T10:41:35.381Z,14.18
2019-04-28T10:44:11.179Z,14.26
2019-04-28T10:46:46.422Z,13.40
2019-04-28T10:49:22.598Z,13.58
2019-04-28T10:51:59.554Z,13.63
2019-04-28T10:54:36.412Z,14.09
2019-04-28T10:57:12.505Z,14.17
2019-04-28T10:59:47.489Z,14.35
2019-04-28T11:02:22.665Z,14.34
2019-04-28T11:05:10.285Z,14.51
2019-04-28T11:07:45.329Z,13.62
2019-04-28T11:10:27.375Z,14.54
2019-04-28T11:13:02.487Z,15.23
2019-04-28T11:15:37.778Z,15.12
2019-04-28T11:18:13.726Z,15.60
2019-04-28T11:20:48.899Z,16.15
2019-04-28T11:23:24.106Z,14.68
2019-04-28T11:25:59.190Z,14.72
2019-04-28T11:28:34.793Z,14.99
2019-04-28T11:31:09.753Z,14.72
2019-04-28T11:34:06.755Z,14.97
2019-04-28T11:36:42.067Z,15.31
2019-04-28T11:39:22.509Z,15.66
2019-04-28T11:41:57.527Z,15.40
2019-04-28T11:44:32.708Z,15.71
2019-04-28T11:47:10.226Z,15.74
2019-04-28T11:49:45.278Z,15.05
2019-04-28T11:52:21.746Z,15.14
2019-04-28T11:54:56.973Z,14.82
2019-04-28T11:57:32.250Z,15.01
2019-04-28T12:00:16.458Z,14.10
2019-04-28T12:02:51.930Z,14.75
2019-04-28T12:05:38.466Z,14.99
2019-04-28T12:08:13.792Z,14.17
2019-04-28T12:10:59.287Z,14.03
2019-04-28T12:13:41.727Z,14.52
2019-04-28T12:16:35.648Z,14.89
2019-04-28T12:19:17.401Z,15.13
2019-04-28T12:21:52.800Z,15.31
2019-04-28T12:24:27.771Z,15.49
2019-04-28T12:27:02.972Z,15.84
2019-04-28T12:29:37.952Z,16.23
2019-04-28T12:32:13.185Z,16.84
2019-04-28T12:34:48.185Z,17.19
2019-04-28T12:37:23.361Z,17.88
2019-04-28T12:39:58.371Z,18.11
2019-04-28T12:42:33.867Z,17.55
2019-04-28T12:45:09.753Z,17.09
2019-04-28T12:47:44.887Z,17.28
2019-04-28T12:50:27.650Z,17.71
2019-04-28T12:53:03.050Z,18.31
2019-04-28T12:55:38.838Z,19.27
2019-04-28T12:58:13.916Z,19.53
2019-04-28T13:01:06.478Z,20.51
2019-04-28T13:03:46.668Z,21.36
2019-04-28T13:06:30.849Z,21.67
2019-04-28T13:09:09.495Z,20.17
2019-04-28T13:11:46.868Z,20.90
2019-04-28T13:14:22.116Z,20.96
2019-04-28T13:16:57.223Z,20.23
2019-04-28T13:19:32.977Z,20.68
2019-04-28T13:22:08.083Z,22.56
2019-04-28T13:24:43.266Z,21.88
2019-04-28T13:27:18.479Z,23.68
2019-04-28T13:29:53.624Z,22.26
2019-04-28T13:32:28.624Z,20.74
2019-04-28T13:35:03.982Z,19.31
2019-04-28T13:37:38.962Z,19.39
2019-04-28T13:40:19.598Z,18.39
2019-04-28T13:42:57.328Z,18.04
2019-04-28T13:45:32.544Z,17.86
2019-04-28T13:48:08.725Z,17.43
2019-04-28T13:50:44.096Z,17.59
2019-04-28T13:53:19.254Z,17.13
2019-04-28T13:56:04.800Z,17.24
2019-04-28T13:58:46.226Z,17.08
2019-04-28T14:01:55.442Z,16.84
2019-04-28T14:04:45.484Z,16.60
2019-04-28T14:07:20.514Z,17.12
2019-04-28T14:09:55.570Z,17.48
2019-04-28T14:12:30.548Z,17.57
2019-04-28T14:15:05.720Z,17.45
2019-04-28T14:17:40.862Z,17.05
2019-04-28T14:20:15.993Z,16.87
2019-04-28T14:22:51.017Z,16.61
2019-04-28T14:25:26.022Z,16.46
2019-04-28T14:28:00.989Z,16.37
2019-04-28T14:30:36.194Z,16.34
2019-04-28T14:33:11.379Z,16.46
2019-04-28T14:35:46.508Z,17.25
2019-04-28T14:38:21.759Z,18.53
2019-04-28T14:40:56.746Z,19.26
2019-04-28T14:43:32.069Z,19.00
2019-04-28T14:46:07.036Z,18.43
2019-04-28T14:48:42.280Z,18.16
2019-04-28T14:51:17.466Z,17.83
2019-04-28T14:53:52.531Z,17.29
2019-04-28T14:56:27.524Z,17.13
2019-04-28T14:59:04.290Z,17.08
2019-04-28T15:02:10.299Z,16.92
2019-04-28T15:05:16.203Z,16.67
2019-04-28T15:08:14.564Z,16.53
2019-04-28T15:11:10.156Z,16.42
2019-04-28T15:13:45.220Z,16.28
2019-04-28T15:16:20.291Z,16.18
2019-04-28T15:18:56.296Z,16.14
2019-04-28T15:21:31.408Z,15.81
2019-04-28T15:24:06.459Z,15.58
2019-04-28T15:26:41.670Z,15.25
2019-04-28T15:29:16.662Z,15.17
2019-04-28T15:31:51.884Z,15.21
2019-04-28T15:34:26.976Z,15.30
2019-04-28T15:37:09.907Z,15.18
2019-04-28T15:39:40.742Z,15.44
2019-04-28T15:42:15.731Z,15.70
2019-04-28T15:44:50.708Z,15.73
2019-04-28T15:47:25.970Z,15.82
2019-04-28T15:50:00.927Z,15.78
2019-04-28T15:52:35.938Z,15.58
2019-04-28T15:55:12.966Z,15.58
2019-04-28T15:57:48.142Z,15.76
2019-04-28T16:00:23.460Z,15.76
2019-04-28T16:02:58.662Z,15.84
2019-04-28T16:05:33.922Z,15.87
2019-04-28T16:08:08.908Z,15.80
2019-04-28T16:10:44.003Z,15.88
2019-04-28T16:13:19.067Z,15.97
2019-04-28T16:15:54.244Z,15.84
2019-04-28T16:18:29.334Z,15.88
2019-04-28T16:21:04.547Z,15.81
2019-04-28T16:23:39.860Z,15.82
2019-04-28T16:26:14.949Z,15.74
2019-04-28T16:28:49.954Z,16.15
2019-04-28T16:31:25.936Z,16.51
2019-04-28T16:34:01.007Z,17.52
2019-04-28T16:36:36.020Z,19.34
2019-04-28T16:39:10.988Z,21.08
2019-04-28T16:42:11.759Z,21.68
2019-04-28T16:45:26.433Z,21.63
2019-04-28T16:48:03.257Z,21.08
2019-04-28T16:50:38.260Z,20.20
2019-04-28T16:53:13.465Z,19.74
2019-04-28T16:56:07.327Z,19.40
2019-04-28T16:59:16.536Z,19.15
2019-04-28T17:02:04.911Z,18.86
2019-04-28T17:04:39.959Z,18.45
2019-04-28T17:07:14.969Z,18.12
2019-04-28T17:09:49.937Z,17.68
2019-04-28T17:12:24.943Z,18.15
2019-04-28T17:14:59.947Z,18.02
2019-04-28T17:17:35.352Z,17.44
2019-04-28T17:20:33.863Z,16.99
2019-04-28T17:23:13.090Z,16.41
2019-04-28T17:25:48.029Z,15.95
2019-04-28T17:28:23.231Z,15.49
2019-04-28T17:30:58.243Z,15.37
2019-04-28T17:33:34.017Z,15.08
2019-04-28T17:36:09.276Z,14.96
2019-04-28T17:38:50.120Z,14.90
2019-04-28T17:41:25.385Z,14.68
2019-04-28T17:44:00.610Z,14.59
2019-04-28T17:46:35.665Z,14.49
2019-04-28T17:49:10.844Z,14.59
2019-04-28T17:51:45.806Z,14.75
2019-04-28T17:54:20.800Z,14.70
2019-04-28T17:56:55.783Z,14.56
2019-04-28T17:59:30.777Z,14.25
2019-04-28T18:02:28.236Z,14.06
2019-04-28T18:05:14.596Z,13.86
2019-04-28T18:07:51.692Z,13.68
2019-04-28T18:10:28.254Z,13.59
2019-04-28T18:13:38.602Z,13.52
2019-04-28T18:16:33.666Z,13.26
2019-04-28T18:19:39.947Z,13.17
2019-04-28T18:22:15.140Z,12.94
2019-04-28T18:24:50.143Z,12.92
2019-04-28T18:27:25.163Z,12.77
2019-04-28T18:30:00.172Z,12.81
2019-04-28T18:33:08.726Z,12.73
2019-04-28T18:35:49.562Z,12.46
2019-04-28T18:38:35.374Z,12.59
2019-04-28T18:41:26.161Z,12.54
2019-04-28T18:44:04.462Z,12.43
2019-04-28T18:46:39.475Z,12.30
2019-04-28T18:49:15.281Z,12.18
2019-04-28T18:51:50.255Z,12.18
2019-04-28T18:54:25.284Z,12.13
2019-04-28T18:57:01.069Z,12.20
2019-04-28T18:59:37.116Z,12.20
2019-04-28T19:02:20.714Z,12.01
2019-04-28T19:04:55.721Z,11.84
2019-04-28T19:07:55.853Z,11.79
2019-04-28T19:10:40.455Z,11.66
2019-04-28T19:13:19.350Z,11.59
2019-04-28T19:16:13.611Z,11.41
2019-04-28T19:18:49.543Z,11.42
2019-04-28T19:21:24.533Z,11.39
2019-04-28T19:23:59.576Z,11.35
2019-04-28T19:26:35.019Z,11.35
2019-04-28T19:29:45.329Z,11.17
2019-04-28T19:32:20.311Z,11.14
2019-04-28T19:34:55.397Z,11.16
2019-04-28T19:37:30.379Z,11.21
2019-04-28T19:40:30.113Z,11.14
2019-04-28T19:43:05.208Z,11.24
2019-04-28T19:45:41.963Z,11.16
2019-04-28T19:48:17.004Z,11.06
2019-04-28T19:50:52.203Z,11.06
2019-04-28T19:53:27.175Z,11.17
2019-04-28T19:56:11.087Z,11.09
2019-04-28T19:58:50.677Z,11.06
2019-04-28T20:01:27.942Z,11.05
2019-04-28T20:04:03.114Z,10.99
2019-04-28T20:06:38.096Z,10.95
2019-04-28T20:09:13.217Z,10.86
2019-04-28T20:11:48.201Z,10.81
2019-04-28T20:14:23.445Z,10.84
2019-04-28T20:17:00.528Z,10.77
2019-04-28T20:19:35.598Z,10.72
2019-04-28T20:22:10.681Z,10.65
2019-04-28T20:24:47.349Z,10.54
2019-04-28T20:27:24.265Z,10.52
2019-04-28T20:29:59.471Z,10.54
2019-04-28T20:32:45.150Z,10.52
2019-04-28T20:35:24.240Z,10.47
2019-04-28T20:38:06.799Z,10.53
2019-04-28T20:40:47.115Z,10.50
2019-04-28T20:43:22.655Z,10.45
2019-04-28T20:45:57.632Z,10.34
2019-04-28T20:48:32.871Z,10.30
2019-04-28T20:51:07.869Z,10.34
2019-04-28T20:53:43.054Z,10.29
2019-04-28T20:56:18.073Z,10.22
2019-04-28T20:58:53.315Z,10.25
2019-04-28T21:01:28.291Z,10.17
2019-04-28T21:04:03.502Z,10.06
2019-04-28T21:06:38.489Z,10.02
2019-04-28T21:09:13.782Z,10.04
2019-04-28T21:11:51.625Z,9.90
2019-04-28T21:14:26.653Z,9.92
2019-04-28T21:17:01.987Z,9.81
2019-04-28T21:19:38.079Z,9.73
2019-04-28T21:22:13.260Z,9.72
2019-04-28T21:24:48.356Z,9.71
2019-04-28T21:27:23.496Z,9.66
2019-04-28T21:29:58.521Z,9.59
2019-04-28T21:32:35.680Z,9.52
2019-04-28T21:35:11.143Z,9.52
2019-04-28T21:37:46.117Z,9.49
2019-04-28T21:40:21.588Z,9.37
2019-04-28T21:43:14.041Z,9.39
2019-04-28T21:46:07.857Z,9.36
2019-04-28T21:48:46.259Z,9.32
2019-04-28T21:51:21.305Z,9.29
2019-04-28T21:53:56.288Z,9.24
2019-04-28T21:56:31.346Z,9.23
2019-04-28T21:59:06.397Z,9.25
2019-04-28T22:01:41.541Z,9.08
2019-04-28T22:04:16.511Z,9.02
2019-04-28T22:06:51.660Z,8.92
2019-04-28T22:09:26.823Z,8.84
2019-04-28T22:12:02.050Z,8.84
2019-04-28T22:14:37.087Z,8.84
2019-04-28T22:17:12.147Z,8.84
2019-04-28T22:19:47.861Z,8.88
2019-04-28T22:22:22.996Z,8.69
2019-04-28T22:25:03.821Z,8.53
2019-04-28T22:27:41.849Z,8.64
2019-04-28T22:30:17.693Z,8.55
2019-04-28T22:32:52.842Z,8.49
2019-04-28T22:35:27.845Z,8.36
2019-04-28T22:38:02.962Z,8.33
2019-04-28T22:40:37.950Z,8.39
2019-04-28T22:43:18.846Z,8.39
2019-04-28T22:45:53.917Z,8.15
2019-04-28T22:48:28.858Z,8.25
2019-04-28T22:51:05.416Z,8.19
2019-04-28T22:53:40.424Z,8.11
2019-04-28T22:56:43.516Z,7.93
2019-04-28T22:59:40.660Z,7.89
2019-04-28T23:02:17.758Z,8.01
2019-04-28T23:05:05.798Z,7.89
2019-04-28T23:07:40.770Z,7.89
2019-04-28T23:10:15.789Z,8.16
2019-04-28T23:12:51.195Z,7.98
2019-04-28T23:15:27.684Z,7.92
2019-04-28T23:18:02.731Z,7.87
2019-04-28T23:20:39.670Z,7.83
2019-04-28T23:23:16.248Z,7.85
2019-04-28T23:25:51.300Z,7.76
2019-04-28T23:28:26.305Z,7.65
2019-04-28T23:31:01.350Z,7.69
2019-04-28T23:33:36.308Z,7.62
2019-04-28T23:36:11.374Z,7.47
2019-04-28T23:38:46.319Z,7.40
2019-04-28T23:41:43.256Z,7.36
2019-04-28T23:44:18.208Z,7.31
2019-04-28T23:46:59.620Z,7.24
2019-04-28T23:49:34.974Z,7.44
2019-04-28T23:52:29.950Z,7.50
2019-04-28T23:55:06.148Z,7.46
2019-04-28T23:57:41.252Z,7.29
